sensor_id;sensor_type;location;lat;lon;timestamp;temperature;humidity
29775;DHT22;16676;51.202;6.774;2023-02-11T00:03:13;18.20;70.10
29775;DHT22;16676;51.202;6.774;2023-02-11T00:07:16;18.20;69.80
29775;DHT22;16676;51.202;6.774;2023-02-11T00:11:19;18.20;69.70
29775;DHT22;16676;51.202;6.774;2023-02-11T00:15:22;18.10;70.10
29775;DHT22;16676;51.202;6.774;2023-02-11T00:19:24;18.20;70.30
29775;DHT22;16676;51.202;6.774;2023-02-11T00:23:27;18.10;70.60
29775;DHT22;16676;51.202;6.774;2023-02-11T00:27:29;18.20;70.80
29775;DHT22;16676;51.202;6.774;2023-02-11T00:31:31;18.10;70.20
29775;DHT22;16676;51.202;6.774;2023-02-11T00:35:36;18.20;70.50
29775;DHT22;16676;51.202;6.774;2023-02-11T00:39:39;18.10;70.40
29775;DHT22;16676;51.202;6.774;2023-02-11T00:43:41;18.10;70.30
29775;DHT22;16676;51.202;6.774;2023-02-11T00:47:44;18.10;70.40
29775;DHT22;16676;51.202;6.774;2023-02-11T00:51:46;18.10;70.80
29775;DHT22;16676;51.202;6.774;2023-02-11T00:55:49;18.10;70.00
29775;DHT22;16676;51.202;6.774;2023-02-11T00:59:51;18.00;70.00
29775;DHT22;16676;51.202;6.774;2023-02-11T01:03:53;18.00;69.90
29775;DHT22;16676;51.202;6.774;2023-02-11T01:07:54;18.10;70.40
29775;DHT22;16676;51.202;6.774;2023-02-11T01:11:58;18.00;70.20
29775;DHT22;16676;51.202;6.774;2023-02-11T01:16:00;18.00;69.80
29775;DHT22;16676;51.202;6.774;2023-02-11T01:20:02;18.00;70.00
29775;DHT22;16676;51.202;6.774;2023-02-11T01:24:05;18.00;70.50
29775;DHT22;16676;51.202;6.774;2023-02-11T01:28:15;18.00;70.10
29775;DHT22;16676;51.202;6.774;2023-02-11T01:32:17;18.00;70.30
29775;DHT22;16676;51.202;6.774;2023-02-11T01:36:19;18.00;70.30
29775;DHT22;16676;51.202;6.774;2023-02-11T01:40:21;18.00;70.20
29775;DHT22;16676;51.202;6.774;2023-02-11T01:44:29;18.00;69.90
29775;DHT22;16676;51.202;6.774;2023-02-11T01:48:34;17.90;69.90
29775;DHT22;16676;51.202;6.774;2023-02-11T01:52:38;18.00;69.90
29775;DHT22;16676;51.202;6.774;2023-02-11T01:56:43;18.00;69.90
29775;DHT22;16676;51.202;6.774;2023-02-11T02:01:06;17.90;70.00
29775;DHT22;16676;51.202;6.774;2023-02-11T02:05:16;17.90;70.00
29775;DHT22;16676;51.202;6.774;2023-02-11T02:09:23;17.90;70.20
29775;DHT22;16676;51.202;6.774;2023-02-11T02:13:27;17.90;70.10
29775;DHT22;16676;51.202;6.774;2023-02-11T02:17:39;17.90;70.00
29775;DHT22;16676;51.202;6.774;2023-02-11T02:26:48;17.90;70.00
29775;DHT22;16676;51.202;6.774;2023-02-11T02:31:10;17.90;70.30
29775;DHT22;16676;51.202;6.774;2023-02-11T02:35:26;17.80;70.20
29775;DHT22;16676;51.202;6.774;2023-02-11T02:39:32;17.80;70.30
29775;DHT22;16676;51.202;6.774;2023-02-11T02:43:41;17.80;70.10
29775;DHT22;16676;51.202;6.774;2023-02-11T02:47:44;17.80;70.10
29775;DHT22;16676;51.202;6.774;2023-02-11T02:56:27;17.80;70.20
29775;DHT22;16676;51.202;6.774;2023-02-11T03:00:36;17.80;70.40
29775;DHT22;16676;51.202;6.774;2023-02-11T03:04:49;17.80;70.40
29775;DHT22;16676;51.202;6.774;2023-02-11T03:08:57;17.80;70.20
29775;DHT22;16676;51.202;6.774;2023-02-11T03:13:02;17.80;70.10
29775;DHT22;16676;51.202;6.774;2023-02-11T03:17:06;17.80;70.10
29775;DHT22;16676;51.202;6.774;2023-02-11T03:21:10;17.80;70.10
29775;DHT22;16676;51.202;6.774;2023-02-11T03:25:15;17.80;70.20
29775;DHT22;16676;51.202;6.774;2023-02-11T03:29:24;17.70;70.00
29775;DHT22;16676;51.202;6.774;2023-02-11T03:33:39;17.70;70.00
29775;DHT22;16676;51.202;6.774;2023-02-11T03:37:47;17.70;70.20
29775;DHT22;16676;51.202;6.774;2023-02-11T03:41:54;17.70;70.20
29775;DHT22;16676;51.202;6.774;2023-02-11T03:45:58;17.70;70.20
29775;DHT22;16676;51.202;6.774;2023-02-11T03:50:03;17.70;70.20
29775;DHT22;16676;51.202;6.774;2023-02-11T03:54:09;17.70;70.20
29775;DHT22;16676;51.202;6.774;2023-02-11T03:58:13;17.70;70.30
29775;DHT22;16676;51.202;6.774;2023-02-11T04:02:15;17.70;70.30
29775;DHT22;16676;51.202;6.774;2023-02-11T04:06:17;17.70;70.30
29775;DHT22;16676;51.202;6.774;2023-02-11T04:10:19;17.70;70.20
29775;DHT22;16676;51.202;6.774;2023-02-11T04:14:23;17.60;70.20
29775;DHT22;16676;51.202;6.774;2023-02-11T04:18:25;17.70;70.40
29775;DHT22;16676;51.202;6.774;2023-02-11T04:22:27;17.60;70.20
29775;DHT22;16676;51.202;6.774;2023-02-11T04:26:28;17.60;70.30
29775;DHT22;16676;51.202;6.774;2023-02-11T04:30:32;17.60;70.20
29775;DHT22;16676;51.202;6.774;2023-02-11T04:34:34;17.60;70.30
29775;DHT22;16676;51.202;6.774;2023-02-11T04:38:36;17.60;70.30
29775;DHT22;16676;51.202;6.774;2023-02-11T04:42:37;17.60;70.20
29775;DHT22;16676;51.202;6.774;2023-02-11T04:46:41;17.60;70.20
29775;DHT22;16676;51.202;6.774;2023-02-11T04:50:43;17.60;70.40
29775;DHT22;16676;51.202;6.774;2023-02-11T04:54:45;17.60;70.40
29775;DHT22;16676;51.202;6.774;2023-02-11T04:58:47;17.60;70.30
29775;DHT22;16676;51.202;6.774;2023-02-11T05:02:50;17.50;70.20
29775;DHT22;16676;51.202;6.774;2023-02-11T05:06:52;17.60;70.10
29775;DHT22;16676;51.202;6.774;2023-02-11T05:10:54;17.50;70.10
29775;DHT22;16676;51.202;6.774;2023-02-11T05:14:56;17.50;70.90
29775;DHT22;16676;51.202;6.774;2023-02-11T05:18:59;17.50;70.20
29775;DHT22;16676;51.202;6.774;2023-02-11T05:23:01;17.50;70.30
29775;DHT22;16676;51.202;6.774;2023-02-11T05:27:03;17.50;70.60
29775;DHT22;16676;51.202;6.774;2023-02-11T05:31:06;17.50;70.50
29775;DHT22;16676;51.202;6.774;2023-02-11T05:35:09;17.50;70.50
29775;DHT22;16676;51.202;6.774;2023-02-11T05:39:11;17.50;70.50
29775;DHT22;16676;51.202;6.774;2023-02-11T05:43:13;17.50;70.50
29775;DHT22;16676;51.202;6.774;2023-02-11T05:47:15;17.50;70.60
29775;DHT22;16676;51.202;6.774;2023-02-11T05:51:18;17.50;70.50
29775;DHT22;16676;51.202;6.774;2023-02-11T05:55:20;17.50;70.70
29775;DHT22;16676;51.202;6.774;2023-02-11T05:59:22;17.50;70.50
29775;DHT22;16676;51.202;6.774;2023-02-11T06:03:24;17.50;70.50
29775;DHT22;16676;51.202;6.774;2023-02-11T06:07:28;17.50;70.70
29775;DHT22;16676;51.202;6.774;2023-02-11T06:11:30;17.50;70.50
29775;DHT22;16676;51.202;6.774;2023-02-11T06:15:31;17.50;70.50
29775;DHT22;16676;51.202;6.774;2023-02-11T06:19:33;17.40;70.50
29775;DHT22;16676;51.202;6.774;2023-02-11T06:23:37;17.40;70.70
29775;DHT22;16676;51.202;6.774;2023-02-11T06:27:39;17.40;70.70
29775;DHT22;16676;51.202;6.774;2023-02-11T06:31:41;17.50;70.80
29775;DHT22;16676;51.202;6.774;2023-02-11T06:35:43;17.40;70.80
29775;DHT22;16676;51.202;6.774;2023-02-11T06:39:46;17.50;70.80
29775;DHT22;16676;51.202;6.774;2023-02-11T06:43:50;17.40;70.90
29775;DHT22;16676;51.202;6.774;2023-02-11T06:47:52;17.40;70.70
29775;DHT22;16676;51.202;6.774;2023-02-11T06:51:54;17.40;70.60
29775;DHT22;16676;51.202;6.774;2023-02-11T06:56:02;17.40;70.70
29775;DHT22;16676;51.202;6.774;2023-02-11T07:00:05;17.40;71.20
29775;DHT22;16676;51.202;6.774;2023-02-11T07:04:08;17.40;71.00
29775;DHT22;16676;51.202;6.774;2023-02-11T07:08:09;17.40;71.10
29775;DHT22;16676;51.202;6.774;2023-02-11T07:12:13;17.40;72.10
29775;DHT22;16676;51.202;6.774;2023-02-11T07:16:16;17.40;73.40
29775;DHT22;16676;51.202;6.774;2023-02-11T07:20:18;17.40;74.00
29775;DHT22;16676;51.202;6.774;2023-02-11T07:24:20;17.50;73.40
29775;DHT22;16676;51.202;6.774;2023-02-11T07:28:24;17.50;72.50
29775;DHT22;16676;51.202;6.774;2023-02-11T07:32:26;17.50;72.10
29775;DHT22;16676;51.202;6.774;2023-02-11T07:36:29;17.50;72.80
29775;DHT22;16676;51.202;6.774;2023-02-11T07:40:32;17.50;72.60
29775;DHT22;16676;51.202;6.774;2023-02-11T07:44:35;17.50;72.20
29775;DHT22;16676;51.202;6.774;2023-02-11T07:48:38;17.50;72.50
29775;DHT22;16676;51.202;6.774;2023-02-11T07:52:40;17.50;73.20
29775;DHT22;16676;51.202;6.774;2023-02-11T07:56:42;17.50;73.20
29775;DHT22;16676;51.202;6.774;2023-02-11T08:00:46;17.50;73.00
29775;DHT22;16676;51.202;6.774;2023-02-11T08:04:48;17.50;72.90
29775;DHT22;16676;51.202;6.774;2023-02-11T08:08:50;17.50;72.80
29775;DHT22;16676;51.202;6.774;2023-02-11T08:12:53;17.50;72.90
29775;DHT22;16676;51.202;6.774;2023-02-11T08:16:56;17.50;72.80
29775;DHT22;16676;51.202;6.774;2023-02-11T08:21:03;17.50;73.00
29775;DHT22;16676;51.202;6.774;2023-02-11T08:25:05;17.40;72.50
29775;DHT22;16676;51.202;6.774;2023-02-11T08:29:10;17.40;72.80
29775;DHT22;16676;51.202;6.774;2023-02-11T08:33:13;17.40;72.80
29775;DHT22;16676;51.202;6.774;2023-02-11T08:37:15;17.40;72.90
29775;DHT22;16676;51.202;6.774;2023-02-11T08:41:17;17.50;73.20
29775;DHT22;16676;51.202;6.774;2023-02-11T08:45:19;17.40;73.00
29775;DHT22;16676;51.202;6.774;2023-02-11T08:49:23;17.50;72.90
29775;DHT22;16676;51.202;6.774;2023-02-11T08:53:25;17.40;72.80
29775;DHT22;16676;51.202;6.774;2023-02-11T08:57:27;17.50;72.90
29775;DHT22;16676;51.202;6.774;2023-02-11T09:01:30;17.40;73.00
29775;DHT22;16676;51.202;6.774;2023-02-11T09:05:33;17.40;73.20
29775;DHT22;16676;51.202;6.774;2023-02-11T09:09:35;17.40;72.80
29775;DHT22;16676;51.202;6.774;2023-02-11T09:13:37;17.40;72.80
29775;DHT22;16676;51.202;6.774;2023-02-11T09:17:41;17.40;72.70
29775;DHT22;16676;51.202;6.774;2023-02-11T09:21:44;17.40;72.80
29775;DHT22;16676;51.202;6.774;2023-02-11T09:25:46;17.40;74.10
29775;DHT22;16676;51.202;6.774;2023-02-11T09:29:48;17.40;75.10
29775;DHT22;16676;51.202;6.774;2023-02-11T09:33:51;17.70;75.40
29775;DHT22;16676;51.202;6.774;2023-02-11T09:37:55;18.30;74.10
29775;DHT22;16676;51.202;6.774;2023-02-11T09:42:09;18.70;72.50
29775;DHT22;16676;51.202;6.774;2023-02-11T09:46:20;19.10;71.30
29775;DHT22;16676;51.202;6.774;2023-02-11T09:50:28;19.40;70.10
29775;DHT22;16676;51.202;6.774;2023-02-11T09:54:35;19.70;69.30
29775;DHT22;16676;51.202;6.774;2023-02-11T09:58:39;19.90;68.50
29775;DHT22;16676;51.202;6.774;2023-02-11T10:02:59;20.10;68.10
29775;DHT22;16676;51.202;6.774;2023-02-11T10:07:12;20.20;67.60
29775;DHT22;16676;51.202;6.774;2023-02-11T10:11:24;20.30;67.30
29775;DHT22;16676;51.202;6.774;2023-02-11T10:15:36;20.30;67.10
29775;DHT22;16676;51.202;6.774;2023-02-11T10:19:52;20.40;67.00
29775;DHT22;16676;51.202;6.774;2023-02-11T10:23:59;20.40;66.70
29775;DHT22;16676;51.202;6.774;2023-02-11T10:28:13;20.40;66.60
29775;DHT22;16676;51.202;6.774;2023-02-11T10:32:28;20.40;66.70
29775;DHT22;16676;51.202;6.774;2023-02-11T10:36:34;20.40;66.60
29775;DHT22;16676;51.202;6.774;2023-02-11T10:40:36;20.40;66.70
29775;DHT22;16676;51.202;6.774;2023-02-11T10:44:42;20.40;66.60
29775;DHT22;16676;51.202;6.774;2023-02-11T10:48:47;20.40;67.00
29775;DHT22;16676;51.202;6.774;2023-02-11T10:52:51;20.30;67.00
29775;DHT22;16676;51.202;6.774;2023-02-11T10:56:58;20.30;67.10
29775;DHT22;16676;51.202;6.774;2023-02-11T11:01:01;20.30;67.20
29775;DHT22;16676;51.202;6.774;2023-02-11T11:05:13;20.20;67.30
29775;DHT22;16676;51.202;6.774;2023-02-11T11:09:26;20.20;67.50
29775;DHT22;16676;51.202;6.774;2023-02-11T11:13:31;20.00;68.10
29775;DHT22;16676;51.202;6.774;2023-02-11T11:17:35;20.00;68.50
29775;DHT22;16676;51.202;6.774;2023-02-11T11:21:41;19.90;68.60
29775;DHT22;16676;51.202;6.774;2023-02-11T11:25:45;19.90;68.90
29775;DHT22;16676;51.202;6.774;2023-02-11T11:29:49;19.80;69.10
29775;DHT22;16676;51.202;6.774;2023-02-11T11:33:55;19.80;69.20
29775;DHT22;16676;51.202;6.774;2023-02-11T11:38:00;19.80;69.40
29775;DHT22;16676;51.202;6.774;2023-02-11T11:42:04;19.70;69.40
29775;DHT22;16676;51.202;6.774;2023-02-11T11:46:08;19.70;69.60
29775;DHT22;16676;51.202;6.774;2023-02-11T11:50:22;19.70;69.90
29775;DHT22;16676;51.202;6.774;2023-02-11T11:54:26;19.60;70.00
29775;DHT22;16676;51.202;6.774;2023-02-11T11:58:30;19.60;70.00
29775;DHT22;16676;51.202;6.774;2023-02-11T12:07:25;19.60;70.10
29775;DHT22;16676;51.202;6.774;2023-02-11T12:11:36;19.60;70.20
29775;DHT22;16676;51.202;6.774;2023-02-11T12:15:49;19.60;70.10
29775;DHT22;16676;51.202;6.774;2023-02-11T12:20:25;19.60;70.30
29775;DHT22;16676;51.202;6.774;2023-02-11T12:24:45;19.60;70.50
29775;DHT22;16676;51.202;6.774;2023-02-11T12:29:04;19.60;70.30
29775;DHT22;16676;51.202;6.774;2023-02-11T12:33:14;19.60;70.20
29775;DHT22;16676;51.202;6.774;2023-02-11T12:37:26;19.60;70.30
29775;DHT22;16676;51.202;6.774;2023-02-11T12:41:43;19.50;70.80
29775;DHT22;16676;51.202;6.774;2023-02-11T12:46:23;19.40;70.90
29775;DHT22;16676;51.202;6.774;2023-02-11T12:50:40;19.40;70.90
29775;DHT22;16676;51.202;6.774;2023-02-11T12:54:52;19.40;71.10
29775;DHT22;16676;51.202;6.774;2023-02-11T12:58:58;19.30;71.30
29775;DHT22;16676;51.202;6.774;2023-02-11T13:03:06;19.30;71.40
29775;DHT22;16676;51.202;6.774;2023-02-11T13:07:14;19.40;71.40
29775;DHT22;16676;51.202;6.774;2023-02-11T13:11:22;19.40;71.50
29775;DHT22;16676;51.202;6.774;2023-02-11T13:15:27;19.40;71.40
29775;DHT22;16676;51.202;6.774;2023-02-11T13:19:33;19.40;71.50
29775;DHT22;16676;51.202;6.774;2023-02-11T13:23:42;19.50;72.00
29775;DHT22;16676;51.202;6.774;2023-02-11T13:27:52;19.40;71.50
29775;DHT22;16676;51.202;6.774;2023-02-11T13:32:07;19.40;71.80
29775;DHT22;16676;51.202;6.774;2023-02-11T13:36:23;19.40;72.10
29775;DHT22;16676;51.202;6.774;2023-02-11T13:40:28;19.40;72.30
29775;DHT22;16676;51.202;6.774;2023-02-11T13:44:33;19.40;72.50
29775;DHT22;16676;51.202;6.774;2023-02-11T13:48:37;19.30;72.40
29775;DHT22;16676;51.202;6.774;2023-02-11T13:52:40;19.30;72.50
29775;DHT22;16676;51.202;6.774;2023-02-11T13:56:42;19.30;72.50
29775;DHT22;16676;51.202;6.774;2023-02-11T14:00:48;19.40;72.50
29775;DHT22;16676;51.202;6.774;2023-02-11T14:05:20;19.40;72.80
29775;DHT22;16676;51.202;6.774;2023-02-11T14:09:40;19.40;72.60
29775;DHT22;16676;51.202;6.774;2023-02-11T14:14:02;19.40;72.50
29775;DHT22;16676;51.202;6.774;2023-02-11T14:18:35;19.30;70.80
29775;DHT22;16676;51.202;6.774;2023-02-11T14:22:45;19.30;69.70
29775;DHT22;16676;51.202;6.774;2023-02-11T14:26:53;19.30;69.30
29775;DHT22;16676;51.202;6.774;2023-02-11T14:31:02;19.30;69.00
29775;DHT22;16676;51.202;6.774;2023-02-11T14:35:12;19.20;69.00
29775;DHT22;16676;51.202;6.774;2023-02-11T14:39:27;19.20;68.80
29775;DHT22;16676;51.202;6.774;2023-02-11T14:43:37;19.10;69.50
29775;DHT22;16676;51.202;6.774;2023-02-11T14:47:42;19.10;68.80
29775;DHT22;16676;51.202;6.774;2023-02-11T14:51:46;19.10;68.90
29775;DHT22;16676;51.202;6.774;2023-02-11T14:55:50;19.00;68.80
29775;DHT22;16676;51.202;6.774;2023-02-11T14:59:57;19.00;68.80
29775;DHT22;16676;51.202;6.774;2023-02-11T15:04:03;19.00;68.80
29775;DHT22;16676;51.202;6.774;2023-02-11T15:08:05;19.00;68.90
29775;DHT22;16676;51.202;6.774;2023-02-11T15:12:18;18.90;68.90
29775;DHT22;16676;51.202;6.774;2023-02-11T15:16:24;18.90;69.00
29775;DHT22;16676;51.202;6.774;2023-02-11T15:20:30;18.90;68.90
29775;DHT22;16676;51.202;6.774;2023-02-11T15:24:34;18.90;69.10
29775;DHT22;16676;51.202;6.774;2023-02-11T15:28:37;18.80;69.90
29775;DHT22;16676;51.202;6.774;2023-02-11T15:32:42;18.90;69.00
29775;DHT22;16676;51.202;6.774;2023-02-11T15:36:45;18.80;69.00
29775;DHT22;16676;51.202;6.774;2023-02-11T15:40:53;18.80;69.00
29775;DHT22;16676;51.202;6.774;2023-02-11T15:45:20;18.80;69.00
29775;DHT22;16676;51.202;6.774;2023-02-11T15:49:25;18.80;69.20
29775;DHT22;16676;51.202;6.774;2023-02-11T15:53:29;18.70;69.20
29775;DHT22;16676;51.202;6.774;2023-02-11T15:57:33;18.70;69.20
29775;DHT22;16676;51.202;6.774;2023-02-11T16:01:36;18.70;69.60
29775;DHT22;16676;51.202;6.774;2023-02-11T16:05:39;18.70;70.10
29775;DHT22;16676;51.202;6.774;2023-02-11T16:09:41;18.60;70.30
29775;DHT22;16676;51.202;6.774;2023-02-11T16:13:45;18.70;70.10
29775;DHT22;16676;51.202;6.774;2023-02-11T16:17:49;18.70;69.80
29775;DHT22;16676;51.202;6.774;2023-02-11T16:21:53;18.70;69.90
29775;DHT22;16676;51.202;6.774;2023-02-11T16:26:00;18.70;69.80
29775;DHT22;16676;51.202;6.774;2023-02-11T16:30:26;18.60;69.90
29775;DHT22;16676;51.202;6.774;2023-02-11T16:34:29;18.60;69.90
29775;DHT22;16676;51.202;6.774;2023-02-11T16:38:31;18.50;70.00
29775;DHT22;16676;51.202;6.774;2023-02-11T16:42:33;18.50;70.00
29775;DHT22;16676;51.202;6.774;2023-02-11T16:46:36;18.50;70.10
29775;DHT22;16676;51.202;6.774;2023-02-11T16:50:43;18.50;70.20
29775;DHT22;16676;51.202;6.774;2023-02-11T16:54:46;18.40;70.00
29775;DHT22;16676;51.202;6.774;2023-02-11T16:58:48;18.50;70.10
29775;DHT22;16676;51.202;6.774;2023-02-11T17:02:50;18.40;70.20
29775;DHT22;16676;51.202;6.774;2023-02-11T17:06:54;18.40;70.20
29775;DHT22;16676;51.202;6.774;2023-02-11T17:10:56;18.40;70.10
29775;DHT22;16676;51.202;6.774;2023-02-11T17:14:57;18.40;70.10
29775;DHT22;16676;51.202;6.774;2023-02-11T17:18:59;18.40;70.20
29775;DHT22;16676;51.202;6.774;2023-02-11T17:23:03;18.40;70.40
29775;DHT22;16676;51.202;6.774;2023-02-11T17:27:05;18.40;70.40
29775;DHT22;16676;51.202;6.774;2023-02-11T17:31:07;18.40;70.40
29775;DHT22;16676;51.202;6.774;2023-02-11T17:35:09;18.30;70.60
29775;DHT22;16676;51.202;6.774;2023-02-11T17:39:13;18.40;70.60
29775;DHT22;16676;51.202;6.774;2023-02-11T17:43:15;18.30;70.80
29775;DHT22;16676;51.202;6.774;2023-02-11T17:47:17;18.40;70.90
29775;DHT22;16676;51.202;6.774;2023-02-11T17:51:23;18.30;71.50
29775;DHT22;16676;51.202;6.774;2023-02-11T17:55:27;18.30;71.20
29775;DHT22;16676;51.202;6.774;2023-02-11T17:59:29;18.30;71.40
29775;DHT22;16676;51.202;6.774;2023-02-11T18:03:34;18.30;71.30
29775;DHT22;16676;51.202;6.774;2023-02-11T18:07:36;18.30;72.80
29775;DHT22;16676;51.202;6.774;2023-02-11T18:11:40;18.20;73.60
29775;DHT22;16676;51.202;6.774;2023-02-11T18:15:42;18.10;74.20
29775;DHT22;16676;51.202;6.774;2023-02-11T18:19:44;18.20;74.70
29775;DHT22;16676;51.202;6.774;2023-02-11T18:23:46;18.20;74.80
29775;DHT22;16676;51.202;6.774;2023-02-11T18:27:49;18.20;74.90
29775;DHT22;16676;51.202;6.774;2023-02-11T18:31:54;18.30;74.70
29775;DHT22;16676;51.202;6.774;2023-02-11T18:35:56;18.30;74.80
29775;DHT22;16676;51.202;6.774;2023-02-11T18:39:58;18.30;75.00
29775;DHT22;16676;51.202;6.774;2023-02-11T18:44:01;18.30;74.90
29775;DHT22;16676;51.202;6.774;2023-02-11T18:48:04;18.30;73.40
29775;DHT22;16676;51.202;6.774;2023-02-11T18:52:06;18.40;72.50
29775;DHT22;16676;51.202;6.774;2023-02-11T18:56:11;18.40;73.10
29775;DHT22;16676;51.202;6.774;2023-02-11T19:00:17;18.40;72.20
29775;DHT22;16676;51.202;6.774;2023-02-11T19:04:19;18.40;72.40
29775;DHT22;16676;51.202;6.774;2023-02-11T19:08:22;18.40;72.30
29775;DHT22;16676;51.202;6.774;2023-02-11T19:12:24;18.40;72.30
29775;DHT22;16676;51.202;6.774;2023-02-11T19:16:28;18.40;72.50
29775;DHT22;16676;51.202;6.774;2023-02-11T19:20:29;18.30;72.40
29775;DHT22;16676;51.202;6.774;2023-02-11T19:24:33;18.30;72.50
29775;DHT22;16676;51.202;6.774;2023-02-11T19:28:36;18.30;72.60
29775;DHT22;16676;51.202;6.774;2023-02-11T19:32:40;18.30;72.60
29775;DHT22;16676;51.202;6.774;2023-02-11T19:36:42;18.30;72.40
29775;DHT22;16676;51.202;6.774;2023-02-11T19:40:44;18.30;72.30
29775;DHT22;16676;51.202;6.774;2023-02-11T19:44:46;18.30;72.50
29775;DHT22;16676;51.202;6.774;2023-02-11T19:48:50;18.30;72.30
29775;DHT22;16676;51.202;6.774;2023-02-11T19:52:52;18.20;72.30
29775;DHT22;16676;51.202;6.774;2023-02-11T19:56:55;18.20;72.40
29775;DHT22;16676;51.202;6.774;2023-02-11T20:01:04;18.20;72.50
29775;DHT22;16676;51.202;6.774;2023-02-11T20:05:08;18.20;72.60
29775;DHT22;16676;51.202;6.774;2023-02-11T20:09:12;18.20;72.50
29775;DHT22;16676;51.202;6.774;2023-02-11T20:13:14;18.20;72.70
29775;DHT22;16676;51.202;6.774;2023-02-11T20:17:16;18.20;72.70
29775;DHT22;16676;51.202;6.774;2023-02-11T20:21:22;18.10;72.70
29775;DHT22;16676;51.202;6.774;2023-02-11T20:25:24;18.10;72.60
29775;DHT22;16676;51.202;6.774;2023-02-11T20:29:26;18.10;72.60
29775;DHT22;16676;51.202;6.774;2023-02-11T20:33:31;18.10;72.60
29775;DHT22;16676;51.202;6.774;2023-02-11T20:37:35;18.10;72.80
29775;DHT22;16676;51.202;6.774;2023-02-11T20:41:38;18.10;72.60
29775;DHT22;16676;51.202;6.774;2023-02-11T20:45:40;18.10;72.60
29775;DHT22;16676;51.202;6.774;2023-02-11T20:49:42;18.10;72.70
29775;DHT22;16676;51.202;6.774;2023-02-11T20:53:46;18.10;72.80
29775;DHT22;16676;51.202;6.774;2023-02-11T20:57:50;18.00;72.20
29775;DHT22;16676;51.202;6.774;2023-02-11T21:01:53;17.90;72.30
29775;DHT22;16676;51.202;6.774;2023-02-11T21:05:57;17.90;72.50
29775;DHT22;16676;51.202;6.774;2023-02-11T21:10:00;17.90;73.10
29775;DHT22;16676;51.202;6.774;2023-02-11T21:14:02;17.90;73.90
29775;DHT22;16676;51.202;6.774;2023-02-11T21:18:04;17.90;74.60
29775;DHT22;16676;51.202;6.774;2023-02-11T21:22:07;17.90;75.00
29775;DHT22;16676;51.202;6.774;2023-02-11T21:26:10;17.90;75.20
29775;DHT22;16676;51.202;6.774;2023-02-11T21:30:13;17.80;75.40
29775;DHT22;16676;51.202;6.774;2023-02-11T21:34:15;17.80;75.40
29775;DHT22;16676;51.202;6.774;2023-02-11T21:38:16;17.90;75.50
29775;DHT22;16676;51.202;6.774;2023-02-11T21:42:20;17.90;74.90
29775;DHT22;16676;51.202;6.774;2023-02-11T21:46:22;17.90;75.40
29775;DHT22;16676;51.202;6.774;2023-02-11T21:50:24;17.90;74.90
29775;DHT22;16676;51.202;6.774;2023-02-11T21:54:26;17.90;74.70
29775;DHT22;16676;51.202;6.774;2023-02-11T21:58:33;17.90;74.40
29775;DHT22;16676;51.202;6.774;2023-02-11T22:02:36;18.00;74.40
29775;DHT22;16676;51.202;6.774;2023-02-11T22:06:38;17.90;74.40
29775;DHT22;16676;51.202;6.774;2023-02-11T22:10:40;17.90;74.40
29775;DHT22;16676;51.202;6.774;2023-02-11T22:14:44;18.00;74.40
29775;DHT22;16676;51.202;6.774;2023-02-11T22:18:46;18.00;74.50
29775;DHT22;16676;51.202;6.774;2023-02-11T22:22:48;18.00;74.10
29775;DHT22;16676;51.202;6.774;2023-02-11T22:26:50;18.00;73.80
29775;DHT22;16676;51.202;6.774;2023-02-11T22:30:55;18.00;73.80
29775;DHT22;16676;51.202;6.774;2023-02-11T22:34:57;18.00;74.00
29775;DHT22;16676;51.202;6.774;2023-02-11T22:38:59;17.90;74.00
29775;DHT22;16676;51.202;6.774;2023-02-11T22:43:02;17.90;74.30
29775;DHT22;16676;51.202;6.774;2023-02-11T22:47:05;17.90;74.10
29775;DHT22;16676;51.202;6.774;2023-02-11T22:51:09;17.90;74.80
29775;DHT22;16676;51.202;6.774;2023-02-11T22:55:11;17.90;74.60
29775;DHT22;16676;51.202;6.774;2023-02-11T22:59:14;17.90;74.60
29775;DHT22;16676;51.202;6.774;2023-02-11T23:03:17;17.90;74.70
29775;DHT22;16676;51.202;6.774;2023-02-11T23:07:19;17.90;74.70
29775;DHT22;16676;51.202;6.774;2023-02-11T23:11:23;17.90;74.30
29775;DHT22;16676;51.202;6.774;2023-02-11T23:15:25;17.90;74.70
29775;DHT22;16676;51.202;6.774;2023-02-11T23:19:28;17.90;74.70
29775;DHT22;16676;51.202;6.774;2023-02-11T23:23:30;17.90;74.70
29775;DHT22;16676;51.202;6.774;2023-02-11T23:27:32;17.90;74.70
29775;DHT22;16676;51.202;6.774;2023-02-11T23:31:35;17.90;74.80
29775;DHT22;16676;51.202;6.774;2023-02-11T23:35:40;17.80;74.60
29775;DHT22;16676;51.202;6.774;2023-02-11T23:39:42;17.90;74.70
29775;DHT22;16676;51.202;6.774;2023-02-11T23:43:48;17.80;75.00
29775;DHT22;16676;51.202;6.774;2023-02-11T23:47:50;17.80;74.90
29775;DHT22;16676;51.202;6.774;2023-02-11T23:51:53;17.80;74.90
29775;DHT22;16676;51.202;6.774;2023-02-11T23:55:55;17.80;74.70
29775;DHT22;16676;51.202;6.774;2023-02-11T23:59:57;17.80;74.60
